Sunday, November 19, 2017, 8:51 PM EST
Back to Local

KPWM, Portland International Jetport

Location: Portland, ME, United States Lat: 43.65
Local Time: 8:51 PM EST ( 1:51 GMT) Lon: -70.3
Time Zone: US/Eastern Elev: 75 ft

Show me the last for .
Show Decoded

2017-11-19 19:51 METAR KPWM 200051Z 26015KT 10SM CLR 01/M06 A2947 RMK AO2 SLP978 T00111056 =
2017-11-19 18:51 METAR KPWM 192351Z 26017G25KT 10SM CLR 02/M05 A2942 RMK AO2 PK WND 29027/2311
                 SLP963 T00171050 10128 20017 51061 =
2017-11-19 17:51 METAR KPWM 192251Z 25010G22KT 10SM CLR 03/M04 A2936 RMK AO2 SLP944 T00281044 =
2017-11-19 16:51 METAR KPWM 192151Z 25017G23KT 10SM SCT040 04/M03 A2932 RMK AO2 PK WND 27031/2052
                 SLP927 T00441028 =
2017-11-19 15:51 METAR KPWM 192051Z 27022G33KT 10SM SCT036 06/M02 A2924 RMK AO2 PK WND 27033/2048
                 PRESRR SLP901 T00611022 53065 =
2017-11-19 14:51 METAR KPWM 191951Z 27013G23KT 10SM SCT027 OVC036 09/01 A2916 RMK AO2 PK WND
                 25030/1857 SLP873 T00890011 =
2017-11-19 13:51 METAR KPWM 191851Z 25016G29KT 10SM FEW026 BKN039 10/04 A2909 RMK AO2 PK WND
                 27031/1805 WSHFT 1742 SLP852 T01000044 =
2017-11-19 12:56 METAR KPWM 191756Z 27018G29KT 10SM SCT024 BKN035 BKN043 12/08 A2905 RMK AO2 PK
                 WND 27029/1754 WSHFT 1742 T01220083 =
2017-11-19 12:51 METAR KPWM 191751Z 27019G27KT 10SM FEW019 BKN027 OVC060 13/09 A2905 RMK AO2 PK
                 WND 28027/1749 RAE39 SLP836 P0001 60016 T01280089 10133 20117 55017 =
2017-11-19 12:40 METAR KPWM 191740Z 22007G17KT 10SM BKN026 BKN055 BKN070 13/12 A2904 RMK AO2
                 RAE39 P0001 T01330122 =
2017-11-19 12:19 METAR KPWM 191719Z 19013G21KT 8SM -RA SCT006 BKN041 OVC070 13/12 A2903 RMK AO2
                 P0000 T01280117 =
2017-11-19 11:51 METAR KPWM 191651Z 18016G24KT 6SM -RA BR BKN006 OVC010 13/12 A2904 RMK AO2
                 RAB1556 SLP832 P0002 T01280117 =
2017-11-19 10:51 METAR KPWM 191551Z 18011G22KT 140V210 7SM OVC004 12/12 A2907 RMK AO2 SLP845
                 T01220117 =
2017-11-19 09:51 METAR KPWM 191451Z 17010G20KT 6SM BR OVC004 12/12 A2910 RMK AO2 RAB05E34 SLP852
                 P0001 60013 T01220117 56024 =
2017-11-19 09:14 METAR KPWM 191414Z 18012G20KT 6SM -RA BR OVC004 12/12 A2913 RMK AO2 RAB05 P0000
                 T01220117 =
2017-11-19 08:51 METAR KPWM 191351Z 19009G20KT 7SM OVC005 12/12 A2913 RMK AO2 RAE49 SLP863 P0006
                 T01220117 =
2017-11-19 08:47 METAR KPWM 191347Z 18013G20KT 7SM -RA OVC005 12/12 A2913 RMK AO2 P0006 =
2017-11-19 08:16 METAR KPWM 191316Z 17014G21KT 5SM -RA BR OVC004 12/11 A2915 RMK AO2 P0003
                 T01220111 =
2017-11-19 07:51 METAR KPWM 191251Z 19013G20KT 3SM RA BR OVC005 12/11 A2917 RMK AO2 SLP877 P0006
                 T01170111 =
2017-11-19 06:51 METAR KPWM 191151Z 18011G19KT 7SM -RA BKN008 BKN039 OVC090 12/11 A2918 RMK AO2
                 SLP881 P0003 60022 70049 T01170111 10117 20050 56043 =
2017-11-19 06:05 METAR KPWM 191105Z 18010G18KT 5SM -RA BR BKN007 BKN025 OVC036 12/11 A2920 RMK
                 AO2 PRESFR P0001 T01170111 =
2017-11-19 05:51 METAR KPWM 191051Z 19009G18KT 6SM -RA BR SCT008 BKN037 OVC075 12/11 A2922 RMK
                 AO2 SLP894 P0006 T01170111 =
2017-11-19 05:30 METAR KPWM 191030Z 17013G19KT 7SM -RA FEW007 BKN060 OVC075 12/11 A2923 RMK AO2
                 P0005 T01170106 =
2017-11-19 05:16 METAR KPWM 191016Z 17011G23KT 6SM -RA BR SCT007 BKN028 OVC085 12/11 A2923 RMK
                 AO2 PRESFR P0004 T01170106 =
2017-11-19 04:51 METAR KPWM 190951Z 17012G19KT 6SM -RA BR BKN006 BKN010 OVC026 11/11 A2926 RMK
                 AO2 SLP909 P0004 T01110106 =
2017-11-19 04:29 METAR KPWM 190929Z AUTO 17011G20KT 6SM -RA BR OVC006 11/10 A2928 RMK AO2 P0003
                 T01110100 =
2017-11-19 04:17 METAR KPWM 190917Z AUTO 16010G19KT 6SM -RA BR OVC004 11/10 A2928 RMK AO2 P0002
                 T01060100 =
2017-11-19 03:51 METAR KPWM 190851Z AUTO 17009G18KT 7SM -RA OVC006 10/09 A2931 RMK AO2 SLP924
                 P0003 60009 T01000094 58048 =
2017-11-19 02:51 METAR KPWM 190751Z AUTO 17005KT 7SM -RA BKN006 OVC018 09/09 A2936 RMK AO2 SLP942
                 P0005 T00940089 =
2017-11-19 02:00 METAR KPWM 190700Z AUTO 19006KT 6SM -RA BR FEW006 BKN029 OVC050 10/09 A2941 RMK
                 AO2 P0000 T01000089 =
2017-11-19 01:51 METAR KPWM 190651Z AUTO 17005KT 7SM -RA FEW015 SCT029 OVC050 10/09 A2940 RMK AO2
                 RAB0553 SLP957 P0001 T01000089 =
2017-11-19 01:34 METAR KPWM 190634Z AUTO 19007KT 10SM -RA SCT007 BKN014 OVC049 10/09 A2942 RMK
                 AO2 RAB0553 P0000 T01000089 =
2017-11-19 01:11 METAR KPWM 190611Z AUTO VRB03KT 7SM -RA FEW003 BKN007 OVC017 08/08 A2943 RMK AO2
                 RAB0553 PRESFR P0000 T00780078 =
2017-11-19 00:51 METAR KPWM 190551Z AUTO 25008G16KT 4SM BR BKN004 OVC009 06/04 A2945 RMK AO2
                 RAE50 SLP972 P0005 60026 T00560044 10100 20039 58041 =
2017-11-19 00:23 METAR KPWM 190523Z AUTO 16003KT 4SM -RA BR BKN004 OVC012 09/08 A2947 RMK AO2
                 P0004 T00890083 =
2017-11-19 00:07 METAR KPWM 190507Z AUTO 18005KT 2SM -RA BR BKN004 OVC010 08/07 A2948 RMK AO2
                 P0001 T00780067 =
2017-11-18 23:51 METAR KPWM 190451Z 00000KT 2SM -RA BR BKN006 OVC011 06/06 A2949 RMK AO2 SLP987
                 LAST P0004 T00610061 401001061 =
2017-11-18 23:38 METAR KPWM 190438Z 24008KT 2SM -RA BR BKN007 OVC013 06/06 A2950 RMK AO2 P0003
                 T00610061 =
2017-11-18 22:51 METAR KPWM 190351Z 18011G17KT 5SM -RA BR BKN007 BKN018 OVC031 10/09 A2953 RMK
                 AO2 SLP999 P0004 T01000089 =
2017-11-18 21:51 METAR KPWM 190251Z VRB05KT 3SM RA BR BKN005 BKN009 OVC016 06/04 A2957 RMK AO2
                 SLP015 P0009 60013 T00560044 58044 =
2017-11-18 21:02 METAR KPWM 190202Z VRB04KT 3SM -RA BR BKN007 OVC012 04/03 A2961 RMK AO2 P0001
                 T00390033 =

Support USWX by starting your Amazon purchase here.